createdAt,value
2019-04-04T00:01:17.094Z,100.00
2019-04-04T00:03:46.950Z,100.00
2019-04-04T00:06:16.471Z,100.00
2019-04-04T00:08:45.961Z,100.00
2019-04-04T00:11:15.443Z,100.00
2019-04-04T00:13:44.948Z,100.00
2019-04-04T00:16:15.936Z,100.00
2019-04-04T00:18:45.796Z,100.00
2019-04-04T00:21:15.291Z,100.00
2019-04-04T00:23:44.794Z,100.00
2019-04-04T00:26:14.310Z,100.00
2019-04-04T00:28:44.080Z,100.00
2019-04-04T00:31:18.838Z,100.00
2019-04-04T00:33:46.784Z,100.00
2019-04-04T00:36:16.278Z,100.00
2019-04-04T00:38:45.784Z,100.00
2019-04-04T00:41:15.264Z,100.00
2019-04-04T00:43:44.750Z,100.00
2019-04-04T00:46:14.267Z,100.00
2019-04-04T00:48:43.770Z,100.00
2019-04-04T00:51:13.259Z,100.00
2019-04-04T00:53:43.547Z,100.00
2019-04-04T00:56:13.052Z,100.00
2019-04-04T00:58:42.571Z,100.00
2019-04-04T01:01:12.066Z,100.00
2019-04-04T01:03:41.570Z,100.00
2019-04-04T01:06:11.125Z,100.00
2019-04-04T01:08:41.877Z,100.00
2019-04-04T01:11:11.372Z,100.00
2019-04-04T01:13:40.951Z,100.00
2019-04-04T01:16:10.445Z,100.00
2019-04-04T01:18:39.951Z,100.00
2019-04-04T01:21:10.396Z,100.00
2019-04-04T01:23:39.893Z,100.00
2019-04-04T01:26:09.398Z,100.00
2019-04-04T01:28:39.601Z,100.00
2019-04-04T01:31:09.175Z,100.00
2019-04-04T01:33:39.573Z,100.00
2019-04-04T01:36:09.114Z,100.00
2019-04-04T01:38:38.634Z,100.00
2019-04-04T01:41:08.121Z,100.00
2019-04-04T01:43:38.079Z,100.00
2019-04-04T01:46:08.913Z,100.00
2019-04-04T01:48:38.495Z,100.00
2019-04-04T01:51:08.131Z,100.00
2019-04-04T01:53:37.745Z,100.00
2019-04-04T01:56:07.241Z,100.00
2019-04-04T01:58:36.730Z,100.00
2019-04-04T02:01:06.284Z,100.00
2019-04-04T02:03:35.785Z,100.00
2019-04-04T02:06:05.442Z,100.00
2019-04-04T02:08:34.936Z,100.00
2019-04-04T02:11:05.470Z,100.00
2019-04-04T02:13:35.364Z,100.00
2019-04-04T02:16:04.916Z,100.00
2019-04-04T02:18:34.482Z,100.00
2019-04-04T02:21:03.999Z,100.00
2019-04-04T02:23:33.495Z,100.00
2019-04-04T02:26:05.081Z,100.00
2019-04-04T02:28:34.216Z,100.00
2019-04-04T02:31:05.361Z,100.00
2019-04-04T02:33:34.842Z,100.00
2019-04-04T02:36:04.377Z,100.00
2019-04-04T02:38:33.866Z,100.00
2019-04-04T02:41:03.367Z,100.00
2019-04-04T02:43:32.857Z,100.00
2019-04-04T02:46:02.391Z,100.00
2019-04-04T02:48:31.947Z,100.00
2019-04-04T02:51:01.481Z,100.00
2019-04-04T02:53:30.992Z,100.00
2019-04-04T02:56:03.385Z,100.00
2019-04-04T02:58:31.738Z,100.00
2019-04-04T03:01:01.341Z,100.00
2019-04-04T03:03:30.899Z,100.00
2019-04-04T03:06:00.837Z,100.00
2019-04-04T03:08:30.350Z,100.00
2019-04-04T03:11:00.026Z,100.00
2019-04-04T03:13:32.182Z,100.00
2019-04-04T03:16:00.808Z,100.00
2019-04-04T03:18:30.332Z,100.00
2019-04-04T03:20:59.829Z,100.00
2019-04-04T03:23:33.023Z,100.00
2019-04-04T03:26:00.568Z,100.00
2019-04-04T03:28:31.845Z,100.00
2019-04-04T03:31:03.257Z,100.00
2019-04-04T03:33:32.930Z,100.00
2019-04-04T03:36:02.523Z,100.00
2019-04-04T03:38:32.012Z,100.00
2019-04-04T03:41:01.802Z,100.00
2019-04-04T03:43:31.304Z,100.00
2019-04-04T03:46:01.731Z,100.00
2019-04-04T03:48:31.325Z,100.00
2019-04-04T03:51:04.162Z,100.00
2019-04-04T03:53:32.045Z,100.00
2019-04-04T03:56:01.726Z,100.00
2019-04-04T03:58:31.250Z,100.00
2019-04-04T04:01:00.779Z,100.00
2019-04-04T04:03:30.262Z,100.00
2019-04-04T04:05:59.788Z,100.00
2019-04-04T04:08:29.308Z,100.00
2019-04-04T04:10:58.814Z,100.00
2019-04-04T04:13:28.319Z,100.00
2019-04-04T04:16:02.519Z,100.00
2019-04-04T04:18:29.237Z,100.00
2019-04-04T04:20:58.748Z,100.00
2019-04-04T04:23:28.267Z,100.00
2019-04-04T04:25:57.789Z,100.00
2019-04-04T04:28:27.272Z,100.00
2019-04-04T04:30:56.782Z,100.00
2019-04-04T04:33:28.887Z,100.00
2019-04-04T04:35:57.516Z,100.00
2019-04-04T04:38:27.216Z,100.00
2019-04-04T04:40:56.667Z,100.00
2019-04-04T04:43:26.161Z,100.00
2019-04-04T04:45:55.654Z,100.00
2019-04-04T04:48:26.070Z,100.00
2019-04-04T04:50:55.798Z,100.00
2019-04-04T04:53:25.357Z,100.00
2019-04-04T04:55:54.827Z,100.00
2019-04-04T04:58:24.330Z,100.00
2019-04-04T05:00:53.843Z,100.00
2019-04-04T05:03:24.187Z,100.00
2019-04-04T05:05:54.283Z,100.00
2019-04-04T05:08:23.768Z,100.00
2019-04-04T05:10:53.267Z,100.00
2019-04-04T05:13:24.573Z,100.00
2019-04-04T05:15:54.011Z,100.00
2019-04-04T05:18:23.569Z,100.00
2019-04-04T05:20:53.113Z,100.00
2019-04-04T05:23:22.630Z,100.00
2019-04-04T05:25:54.294Z,100.00
2019-04-04T05:28:24.170Z,100.00
2019-04-04T05:30:53.698Z,100.00
2019-04-04T05:33:26.883Z,100.00
2019-04-04T05:35:55.664Z,100.00
2019-04-04T05:38:25.148Z,100.00
2019-04-04T05:40:55.417Z,100.00
2019-04-04T05:43:25.524Z,100.00
2019-04-04T05:45:55.017Z,100.00
2019-04-04T05:48:24.527Z,100.00
2019-04-04T05:50:54.043Z,100.00
2019-04-04T05:53:23.542Z,100.00
2019-04-04T05:55:53.029Z,100.00
2019-04-04T05:58:22.765Z,100.00
2019-04-04T06:00:52.319Z,100.00
2019-04-04T06:03:21.824Z,100.00
2019-04-04T06:05:51.318Z,100.00
2019-04-04T06:08:20.859Z,100.00
2019-04-04T06:10:50.828Z,100.00
2019-04-04T06:13:22.229Z,100.00
2019-04-04T06:15:51.807Z,100.00
2019-04-04T06:18:21.355Z,100.00
2019-04-04T06:20:50.867Z,100.00
2019-04-04T06:23:20.658Z,100.00
2019-04-04T06:25:50.142Z,100.00
2019-04-04T06:28:19.721Z,100.00
2019-04-04T06:30:49.211Z,100.00
2019-04-04T06:33:19.988Z,100.00
2019-04-04T06:35:49.562Z,100.00
2019-04-04T06:38:19.061Z,100.00
2019-04-04T06:40:48.563Z,100.00
2019-04-04T06:43:18.077Z,100.00
2019-04-04T06:45:48.904Z,100.00
2019-04-04T06:48:18.444Z,100.00
2019-04-04T06:50:47.984Z,100.00
2019-04-04T06:53:17.510Z,100.00
2019-04-04T06:55:47.013Z,100.00
2019-04-04T06:58:17.775Z,100.00
2019-04-04T07:00:49.814Z,100.00
2019-04-04T07:03:18.506Z,100.00
2019-04-04T07:05:48.000Z,100.00
2019-04-04T07:08:17.510Z,100.00
2019-04-04T07:10:57.490Z,100.00
2019-04-04T07:13:22.129Z,100.00
2019-04-04T07:16:05.449Z,95.36
2019-04-04T07:18:21.565Z,91.10
2019-04-04T07:20:51.061Z,92.16
2019-04-04T07:23:20.570Z,91.51
2019-04-04T07:25:53.238Z,97.77
2019-04-04T07:28:21.360Z,98.56
2019-04-04T07:30:50.850Z,100.00
2019-04-04T07:33:21.488Z,100.00
2019-04-04T07:35:51.104Z,100.00
2019-04-04T07:38:20.620Z,100.00
2019-04-04T07:40:50.194Z,100.00
2019-04-04T07:43:20.097Z,100.00
2019-04-04T07:45:49.709Z,100.00
2019-04-04T07:48:19.223Z,100.00
2019-04-04T07:50:51.335Z,100.00
2019-04-04T07:53:19.946Z,100.00
2019-04-04T07:55:49.500Z,100.00
2019-04-04T07:58:19.014Z,100.00
2019-04-04T08:00:48.545Z,100.00
2019-04-04T08:03:18.052Z,100.00
2019-04-04T08:05:47.550Z,100.00
2019-04-04T08:08:17.104Z,100.00
2019-04-04T08:10:46.589Z,100.00
2019-04-04T08:13:16.082Z,100.00
2019-04-04T08:15:45.597Z,100.00
2019-04-04T08:18:15.079Z,99.13
2019-04-04T08:20:44.602Z,100.00
2019-04-04T08:23:14.094Z,97.99
2019-04-04T08:25:43.620Z,100.00
2019-04-04T08:28:13.120Z,100.00
2019-04-04T08:30:43.870Z,96.24
2019-04-04T08:33:13.437Z,92.53
2019-04-04T08:35:42.954Z,89.85
2019-04-04T08:38:12.475Z,89.04
2019-04-04T08:40:42.011Z,85.48
2019-04-04T08:43:12.559Z,83.50
2019-04-04T08:45:42.075Z,85.84
2019-04-04T08:48:11.580Z,100.00
2019-04-04T08:50:41.128Z,100.00
2019-04-04T08:53:10.643Z,100.00
2019-04-04T08:55:41.191Z,100.00
2019-04-04T08:58:10.705Z,99.81
2019-04-04T09:00:40.251Z,100.00
2019-04-04T09:03:09.775Z,96.66
2019-04-04T09:05:39.282Z,94.83
2019-04-04T09:08:08.845Z,95.57
2019-04-04T09:10:38.364Z,79.83
2019-04-04T09:13:07.858Z,94.56
2019-04-04T09:15:37.394Z,100.00
2019-04-04T09:18:06.956Z,87.86
2019-04-04T09:20:36.470Z,83.27
2019-04-04T09:23:06.044Z,89.73
2019-04-04T09:25:35.552Z,100.00
2019-04-04T09:28:05.404Z,100.00
2019-04-04T09:30:34.932Z,100.00
2019-04-04T09:33:05.245Z,100.00
2019-04-04T09:35:34.755Z,100.00
2019-04-04T09:38:04.278Z,100.00
2019-04-04T09:40:33.789Z,100.00
2019-04-04T09:43:03.306Z,100.00
2019-04-04T09:45:33.499Z,100.00
2019-04-04T09:48:02.993Z,98.85
2019-04-04T09:50:32.538Z,100.00
2019-04-04T09:53:02.031Z,100.00
2019-04-04T09:55:31.534Z,100.00
2019-04-04T09:58:01.082Z,100.00
2019-04-04T10:00:30.666Z,100.00
2019-04-04T10:03:00.154Z,100.00
2019-04-04T10:05:30.063Z,100.00
2019-04-04T10:07:59.559Z,100.00
2019-04-04T10:10:29.695Z,100.00
2019-04-04T10:12:59.192Z,92.99
2019-04-04T10:15:28.777Z,94.64
2019-04-04T10:17:58.280Z,76.21
2019-04-04T10:20:27.833Z,62.37
2019-04-04T10:22:58.036Z,54.05
2019-04-04T10:25:27.556Z,47.22
2019-04-04T10:27:57.051Z,45.71
2019-04-04T10:30:26.574Z,51.65
2019-04-04T10:32:56.072Z,50.54
2019-04-04T10:35:26.300Z,63.93
2019-04-04T10:37:55.798Z,78.96
2019-04-04T10:40:25.308Z,88.50
2019-04-04T10:42:54.806Z,88.64
2019-04-04T10:45:24.325Z,88.90
2019-04-04T10:47:53.920Z,93.99
2019-04-04T10:50:23.431Z,92.87
2019-04-04T10:52:52.939Z,88.53
2019-04-04T10:55:22.459Z,69.10
2019-04-04T10:57:51.973Z,64.87
2019-04-04T11:00:22.104Z,51.87
2019-04-04T11:02:51.620Z,53.40
2019-04-04T11:05:21.109Z,57.82
2019-04-04T11:07:50.696Z,52.15
2019-04-04T11:10:20.354Z,55.17
2019-04-04T11:12:50.863Z,51.21
2019-04-04T11:15:20.370Z,44.95
2019-04-04T11:17:49.886Z,48.23
2019-04-04T11:20:19.385Z,61.11
2019-04-04T11:22:48.896Z,53.29
2019-04-04T11:25:18.388Z,45.54
2019-04-04T11:27:47.905Z,53.00
2019-04-04T11:30:18.041Z,52.25
2019-04-04T11:32:48.962Z,50.16
2019-04-04T11:35:18.616Z,44.23
2019-04-04T11:37:48.121Z,48.68
2019-04-04T11:40:17.616Z,46.09
2019-04-04T11:42:48.491Z,48.00
2019-04-04T11:45:17.960Z,52.13
2019-04-04T11:47:47.475Z,50.84
2019-04-04T11:50:16.962Z,43.93
2019-04-04T11:52:46.480Z,49.78
2019-04-04T11:55:16.075Z,50.00
2019-04-04T11:57:45.597Z,56.33
2019-04-04T12:00:17.076Z,51.45
2019-04-04T12:02:46.583Z,54.30
2019-04-04T12:05:16.158Z,52.89
2019-04-04T12:07:45.672Z,56.11
2019-04-04T12:10:15.407Z,53.78
2019-04-04T12:12:44.930Z,50.91
2019-04-04T12:15:14.770Z,48.03
2019-04-04T12:17:44.275Z,41.05
2019-04-04T12:20:14.213Z,42.21
2019-04-04T12:22:43.730Z,41.58
2019-04-04T12:25:13.388Z,40.16
2019-04-04T12:27:42.905Z,37.95
2019-04-04T12:30:13.890Z,38.31
2019-04-04T12:32:43.409Z,43.41
2019-04-04T12:35:12.976Z,47.12
2019-04-04T12:37:42.499Z,46.22
2019-04-04T12:40:20.565Z,49.11
2019-04-04T12:42:43.304Z,47.73
2019-04-04T12:45:13.242Z,49.87
2019-04-04T12:47:42.762Z,50.58
2019-04-04T12:50:13.722Z,55.83
2019-04-04T12:52:43.240Z,63.32
2019-04-04T12:55:12.806Z,53.80
2019-04-04T12:57:42.327Z,62.45
2019-04-04T13:00:12.057Z,73.76
2019-04-04T13:02:41.569Z,63.54
2019-04-04T13:05:11.231Z,61.24
2019-04-04T13:07:40.805Z,52.93
2019-04-04T13:10:12.023Z,69.47
2019-04-04T13:12:41.726Z,78.54
2019-04-04T13:15:11.547Z,79.58
2019-04-04T13:17:41.051Z,73.00
2019-04-04T13:20:11.192Z,66.23
2019-04-04T13:22:40.696Z,70.78
2019-04-04T13:25:10.631Z,73.49
2019-04-04T13:27:40.159Z,68.47
2019-04-04T13:30:11.960Z,75.49
2019-04-04T13:32:41.535Z,78.17
2019-04-04T13:35:11.335Z,78.72
2019-04-04T13:37:41.290Z,77.93
2019-04-04T13:40:10.927Z,76.86
2019-04-04T13:42:40.463Z,67.93
2019-04-04T13:45:10.218Z,79.68
2019-04-04T13:47:40.354Z,80.24
2019-04-04T13:50:12.447Z,81.50
2019-04-04T13:52:41.842Z,83.22
2019-04-04T13:55:11.508Z,81.79
2019-04-04T13:57:41.017Z,85.02
2019-04-04T14:00:11.648Z,85.92
2019-04-04T14:02:41.265Z,90.36
2019-04-04T14:05:14.199Z,86.72
2019-04-04T14:07:43.980Z,86.38
2019-04-04T14:10:16.849Z,81.52
2019-04-04T14:12:45.150Z,91.43
2019-04-04T14:15:14.943Z,93.48
2019-04-04T14:17:44.464Z,100.00
2019-04-04T14:20:14.608Z,100.00
2019-04-04T14:22:44.118Z,100.00
2019-04-04T14:25:13.688Z,100.00
2019-04-04T14:27:43.203Z,100.00
2019-04-04T14:30:13.140Z,100.00
2019-04-04T14:32:43.695Z,100.00
2019-04-04T14:35:13.426Z,100.00
2019-04-04T14:37:42.962Z,100.00
2019-04-04T14:40:12.686Z,100.00
2019-04-04T14:42:42.207Z,100.00
2019-04-04T14:45:12.033Z,100.00
2019-04-04T14:47:42.075Z,100.00
2019-04-04T14:50:11.705Z,100.00
2019-04-04T14:52:41.216Z,100.00
2019-04-04T14:55:10.846Z,100.00
2019-04-04T14:57:40.610Z,100.00
2019-04-04T15:00:17.642Z,100.00
2019-04-04T15:02:47.220Z,100.00
2019-04-04T15:05:16.778Z,100.00
2019-04-04T15:07:46.385Z,100.00
2019-04-04T15:10:15.977Z,100.00
2019-04-04T15:12:46.708Z,100.00
2019-04-04T15:15:16.457Z,100.00
2019-04-04T15:17:45.999Z,100.00
2019-04-04T15:20:15.725Z,100.00
2019-04-04T15:22:45.205Z,100.00
2019-04-04T15:25:14.713Z,100.00
2019-04-04T15:27:44.193Z,100.00
2019-04-04T15:30:14.244Z,100.00
2019-04-04T15:32:43.757Z,100.00
2019-04-04T15:35:13.314Z,100.00
2019-04-04T15:37:43.363Z,100.00
2019-04-04T15:40:13.279Z,100.00
2019-04-04T15:42:42.838Z,100.00
2019-04-04T15:45:12.707Z,100.00
2019-04-04T15:47:42.198Z,100.00
2019-04-04T15:50:12.038Z,100.00
2019-04-04T15:52:41.539Z,100.00
2019-04-04T15:55:11.117Z,100.00
2019-04-04T15:57:40.594Z,100.00
2019-04-04T16:00:10.608Z,100.00
2019-04-04T16:02:40.133Z,100.00
2019-04-04T16:05:09.853Z,100.00
2019-04-04T16:07:39.339Z,100.00
2019-04-04T16:10:09.265Z,100.00
2019-04-04T16:12:38.757Z,100.00
2019-04-04T16:15:08.419Z,100.00
2019-04-04T16:17:37.903Z,100.00
2019-04-04T16:20:09.108Z,100.00
2019-04-04T16:22:38.591Z,100.00
2019-04-04T16:25:08.597Z,100.00
2019-04-04T16:27:38.074Z,100.00
2019-04-04T16:30:09.557Z,100.00
2019-04-04T16:32:39.059Z,100.00
2019-04-04T16:35:08.969Z,100.00
2019-04-04T16:37:38.524Z,100.00
2019-04-04T16:40:10.568Z,100.00
2019-04-04T16:42:40.046Z,100.00
2019-04-04T16:45:09.804Z,100.00
2019-04-04T16:47:39.284Z,100.00
2019-04-04T16:50:09.913Z,100.00
2019-04-04T16:52:39.391Z,100.00
2019-04-04T16:55:09.158Z,100.00
2019-04-04T16:57:38.657Z,100.00
2019-04-04T17:00:12.174Z,100.00
2019-04-04T17:02:41.683Z,100.00
2019-04-04T17:05:11.594Z,100.00
2019-04-04T17:07:41.081Z,100.00
2019-04-04T17:10:12.020Z,100.00
2019-04-04T17:12:41.511Z,100.00
2019-04-04T17:15:11.382Z,100.00
2019-04-04T17:17:40.892Z,100.00
2019-04-04T17:20:11.192Z,100.00
2019-04-04T17:22:40.706Z,100.00
2019-04-04T17:25:11.215Z,100.00
2019-04-04T17:27:40.734Z,100.00
2019-04-04T17:30:12.849Z,100.00
2019-04-04T17:32:42.381Z,100.00
2019-04-04T17:35:12.050Z,100.00
2019-04-04T17:37:42.810Z,100.00
2019-04-04T17:40:13.728Z,100.00
2019-04-04T17:42:43.311Z,100.00
2019-04-04T17:45:13.776Z,100.00
2019-04-04T17:47:43.332Z,100.00
2019-04-04T17:50:15.486Z,100.00
2019-04-04T17:52:45.916Z,100.00
2019-04-04T17:55:15.754Z,100.00
2019-04-04T17:57:45.510Z,100.00
2019-04-04T18:00:16.210Z,100.00
2019-04-04T18:02:45.697Z,100.00
2019-04-04T18:05:15.539Z,100.00
2019-04-04T18:07:45.125Z,100.00
2019-04-04T18:10:14.961Z,100.00
2019-04-04T18:12:44.451Z,100.00
2019-04-04T18:15:14.448Z,100.00
2019-04-04T18:17:43.952Z,100.00
2019-04-04T18:20:14.202Z,100.00
2019-04-04T18:22:43.685Z,100.00
2019-04-04T18:25:13.662Z,100.00
2019-04-04T18:27:43.218Z,100.00
2019-04-04T18:30:13.810Z,100.00
2019-04-04T18:32:43.308Z,100.00
2019-04-04T18:35:12.975Z,100.00
2019-04-04T18:37:42.580Z,100.00
2019-04-04T18:40:12.303Z,100.00
2019-04-04T18:42:52.703Z,100.00
2019-04-04T18:45:14.286Z,100.00
2019-04-04T18:47:43.807Z,100.00
2019-04-04T18:50:13.905Z,100.00
2019-04-04T18:52:43.437Z,100.00
2019-04-04T18:55:19.971Z,100.00
2019-04-04T18:57:46.074Z,100.00
2019-04-04T19:00:16.193Z,100.00
2019-04-04T19:02:45.998Z,100.00
2019-04-04T19:05:15.895Z,100.00
2019-04-04T19:07:45.363Z,100.00
2019-04-04T19:10:15.144Z,100.00
2019-04-04T19:12:45.762Z,100.00
2019-04-04T19:15:15.804Z,100.00
2019-04-04T19:17:45.306Z,100.00
2019-04-04T19:20:15.303Z,100.00
2019-04-04T19:22:44.817Z,100.00
2019-04-04T19:25:14.524Z,100.00
2019-04-04T19:27:44.049Z,100.00
2019-04-04T19:30:15.192Z,100.00
2019-04-04T19:32:44.752Z,100.00
2019-04-04T19:35:15.014Z,100.00
2019-04-04T19:37:44.520Z,100.00
2019-04-04T19:40:14.919Z,100.00
2019-04-04T19:42:44.556Z,100.00
2019-04-04T19:45:14.583Z,100.00
2019-04-04T19:47:44.074Z,100.00
2019-04-04T19:50:14.613Z,100.00
2019-04-04T19:52:44.119Z,100.00
2019-04-04T19:55:14.733Z,100.00
2019-04-04T19:57:44.265Z,100.00
2019-04-04T20:00:15.448Z,100.00
2019-04-04T20:02:44.943Z,100.00
2019-04-04T20:05:14.744Z,100.00
2019-04-04T20:07:44.247Z,100.00
2019-04-04T20:10:14.419Z,100.00
2019-04-04T20:12:43.905Z,100.00
2019-04-04T20:15:13.562Z,100.00
2019-04-04T20:17:43.068Z,100.00
2019-04-04T20:20:12.726Z,100.00
2019-04-04T20:22:42.237Z,100.00
2019-04-04T20:25:11.856Z,100.00
2019-04-04T20:27:54.143Z,100.00
2019-04-04T20:30:14.556Z,100.00
2019-04-04T20:32:44.014Z,100.00
2019-04-04T20:35:13.772Z,100.00
2019-04-04T20:37:43.275Z,100.00
2019-04-04T20:40:12.901Z,100.00
2019-04-04T20:42:42.368Z,100.00
2019-04-04T20:45:11.967Z,100.00
2019-04-04T20:47:42.338Z,100.00
2019-04-04T20:50:11.955Z,100.00
2019-04-04T20:52:41.482Z,100.00
2019-04-04T20:55:11.198Z,100.00
2019-04-04T20:57:40.702Z,100.00
2019-04-04T21:00:10.572Z,100.00
2019-04-04T21:02:40.139Z,100.00
2019-04-04T21:05:09.718Z,100.00
2019-04-04T21:07:39.217Z,100.00
2019-04-04T21:10:10.334Z,100.00
2019-04-04T21:12:39.829Z,100.00
2019-04-04T21:15:09.655Z,100.00
2019-04-04T21:17:39.147Z,100.00
2019-04-04T21:20:08.806Z,100.00
2019-04-04T21:22:38.327Z,100.00
2019-04-04T21:25:08.109Z,100.00
2019-04-04T21:27:37.640Z,100.00
2019-04-04T21:30:08.326Z,100.00
2019-04-04T21:32:37.850Z,100.00
2019-04-04T21:35:08.173Z,100.00
2019-04-04T21:37:37.679Z,100.00
2019-04-04T21:40:07.401Z,100.00
2019-04-04T21:42:36.937Z,100.00
2019-04-04T21:45:07.816Z,100.00
2019-04-04T21:47:37.660Z,100.00
2019-04-04T21:50:08.309Z,100.00
2019-04-04T21:52:38.178Z,100.00
2019-04-04T21:55:07.948Z,100.00
2019-04-04T21:57:37.453Z,100.00
2019-04-04T22:00:08.673Z,100.00
2019-04-04T22:02:38.270Z,100.00
2019-04-04T22:05:08.962Z,100.00
2019-04-04T22:07:38.489Z,100.00
2019-04-04T22:10:08.978Z,100.00
2019-04-04T22:12:38.487Z,100.00
2019-04-04T22:15:08.588Z,100.00
2019-04-04T22:17:38.678Z,100.00
2019-04-04T22:20:08.601Z,100.00
2019-04-04T22:22:38.131Z,100.00
2019-04-04T22:25:08.520Z,100.00
2019-04-04T22:27:38.192Z,100.00
2019-04-04T22:30:09.472Z,100.00
2019-04-04T22:32:38.964Z,100.00
2019-04-04T22:35:08.702Z,100.00
2019-04-04T22:37:38.173Z,100.00
2019-04-04T22:40:09.558Z,100.00
2019-04-04T22:42:39.040Z,100.00
2019-04-04T22:45:08.980Z,100.00
2019-04-04T22:47:38.467Z,100.00
2019-04-04T22:50:09.047Z,100.00
2019-04-04T22:52:38.519Z,100.00
2019-04-04T22:55:08.953Z,100.00
2019-04-04T22:57:38.433Z,100.00
2019-04-04T23:00:10.372Z,100.00
2019-04-04T23:02:39.864Z,100.00
2019-04-04T23:05:09.516Z,100.00
2019-04-04T23:07:39.027Z,100.00
2019-04-04T23:10:09.083Z,100.00
2019-04-04T23:12:39.847Z,100.00
2019-04-04T23:15:12.746Z,100.00
2019-04-04T23:17:45.263Z,100.00
2019-04-04T23:20:13.525Z,100.00
2019-04-04T23:22:52.589Z,100.00
2019-04-04T23:25:14.334Z,100.00
2019-04-04T23:27:44.351Z,100.00
2019-04-04T23:30:14.076Z,100.00
2019-04-04T23:32:43.556Z,100.00
2019-04-04T23:35:13.129Z,100.00
2019-04-04T23:37:42.603Z,100.00
2019-04-04T23:40:12.707Z,100.00
2019-04-04T23:42:42.195Z,100.00
2019-04-04T23:45:11.767Z,100.00
2019-04-04T23:47:43.106Z,100.00
2019-04-04T23:50:13.246Z,100.00
2019-04-04T23:52:42.759Z,100.00
2019-04-04T23:55:12.391Z,100.00
2019-04-04T23:57:41.896Z,100.00
